Terminal Aerodrome Forecast
Issued by NWS

Home | Current Version | Previous Version | Text Only | Print | Product List | Glossary On
Versions: 1 2 3 4 5 6 7 8 9 10 11 12 13 14 15 16 17 18 19 20 21 22 23 24 25 26 27 28 29 30 31 32 33 34 35 36 37 38 39 40 41 42 43 44 45 46 47 48 49 50
000
FTUS43 KMKX 062108 AAA
TAFENW
TAF AMD
KENW 062108Z 0621/0718 09009KT P6SM SCT007
     FM070200 10007KT 3SM BR BKN007
     FM070800 16004KT 2SM BR OVC003 WS015/20035KT
     FM071300 18007KT 5SM BR OVC006 WS015/20035KT
     FM071600 18011G18KT P6SM FEW250=

USA.gov is the U.S. government's official web portal to all federal, state and local government web resources and services.